Time;durP1;ratioP1;P1;durP2;ratioP2;P2;SDS_P1;SDS_P2;PMS_P1;PMS_P2;Temp;Humidity;BMP_temperature;BMP_pressure;BME280_temperature;BME280_humidity;BME280_pressure;Samples;Min_cycle;Max_cycle;Signal;HPM_P1;HPM_P2
2022/01/19 00:01:49;;;;;;;4.30;0.90;;;;;;;-3.49;53.55;101217.14;1722639;80;21188;-60
2022/01/19 00:04:15;;;;;;;3.22;1.15;;;;;;;-3.52;53.74;101202.16;1728096;80;21010;-61
2022/01/19 00:06:41;;;;;;;3.10;0.72;;;;;;;-3.51;53.67;101204.72;1697806;82;21149;-60
2022/01/19 00:09:08;;;;;;;3.10;1.00;;;;;;;-3.63;54.08;101219.83;1733582;80;21066;-60
2022/01/19 00:11:34;;;;;;;3.17;1.37;;;;;;;-3.50;53.86;101210.72;1722594;80;21106;-60
2022/01/19 00:14:01;;;;;;;2.42;0.60;;;;;;;-3.51;53.99;101221.45;1733151;80;21097;-60
2022/01/19 00:16:27;;;;;;;3.60;0.50;;;;;;;-3.49;53.99;101237.72;1724199;80;21574;-60
2022/01/19 00:18:54;;;;;;;3.33;0.78;;;;;;;-3.59;54.36;101227.92;1724823;80;21163;-58
2022/01/19 00:21:20;;;;;;;2.08;0.70;;;;;;;-3.55;54.39;101236.06;1724516;80;21047;-58
2022/01/19 00:23:47;;;;;;;2.35;0.75;;;;;;;-3.48;54.02;101204.70;1722760;80;21068;-61
2022/01/19 00:26:14;;;;;;;3.02;0.93;;;;;;;-3.42;53.97;101248.81;1731496;80;21787;-60
2022/01/19 00:28:40;;;;;;;3.20;0.70;;;;;;;-3.64;54.74;101244.28;1683931;83;21113;-61
2022/01/19 00:31:06;;;;;;;4.75;1.07;;;;;;;-3.72;55.07;101249.91;1737844;82;21573;-62
2022/01/19 00:33:33;;;;;;;4.45;0.80;;;;;;;-3.60;54.82;101254.54;1707210;82;21095;-60
2022/01/19 00:36:00;;;;;;;3.22;1.00;;;;;;;-3.73;55.15;101247.77;1708589;83;21126;-61
2022/01/19 00:38:27;;;;;;;1.80;0.50;;;;;;;-3.72;54.99;101264.05;1701167;82;21440;-61
2022/01/19 00:40:55;;;;;;;3.58;0.85;;;;;;;-3.70;54.80;101249.02;1708335;82;21085;-60
2022/01/19 00:43:22;;;;;;;2.62;0.90;;;;;;;-3.65;54.41;101246.42;1729742;80;21910;-60
2022/01/19 00:45:51;;;;;;;3.15;1.00;;;;;;;-3.70;54.41;101255.44;1731125;80;21643;-61
2022/01/19 00:48:17;;;;;;;2.77;0.78;;;;;;;-3.76;54.56;101261.50;1707837;82;21101;-62
2022/01/19 00:50:44;;;;;;;3.37;0.80;;;;;;;-3.76;54.53;101264.06;1706356;82;21093;-61
2022/01/19 00:53:10;;;;;;;4.28;1.25;;;;;;;-3.82;54.71;101260.23;1733876;80;21557;-61
2022/01/19 00:55:37;;;;;;;4.10;0.88;;;;;;;-3.76;54.58;101264.06;1738413;82;21985;-60
2022/01/19 00:58:04;;;;;;;5.65;0.90;;;;;;;-3.72;54.38;101264.05;1704266;82;21606;-60
2022/01/19 01:00:32;;;;;;;2.77;0.68;;;;;;;-3.77;54.60;101270.06;1734055;82;21099;-60
2022/01/19 01:02:59;;;;;;;2.27;0.82;;;;;;;-3.69;54.36;101273.88;1732823;80;21133;-61
2022/01/19 01:05:25;;;;;;;4.55;1.20;;;;;;;-3.83;54.59;101272.70;1734430;80;21074;-60
2022/01/19 01:07:53;;;;;;;3.92;0.98;;;;;;;-3.86;54.74;101270.58;1735051;80;21144;-59
2022/01/19 01:10:21;;;;;;;4.12;1.10;;;;;;;-3.90;54.96;101269.75;1735916;80;21084;-61
2022/01/19 01:12:53;;;;;;;3.10;0.65;;;;;;;-3.89;55.00;101280.87;1706116;82;21811;-60
2022/01/19 01:20:37;;;;;;;2.25;0.68;;;;;;;-3.86;55.05;101286.01;1731272;80;21130;-61
2022/01/19 01:23:05;;;;;;;6.58;0.80;;;;;;;-3.89;55.05;101274.45;1732454;82;21495;-60
2022/01/19 01:25:33;;;;;;;1.60;0.47;;;;;;;-4.02;55.41;101280.92;1711580;82;21070;-60
2022/01/19 01:28:00;;;;;;;2.65;0.60;;;;;;;-3.96;55.07;101277.48;1737970;80;21180;-60
2022/01/19 01:30:26;;;;;;;2.27;0.80;;;;;;;-4.06;55.37;101270.25;1734288;80;21627;-60
2022/01/19 01:32:52;;;;;;;2.17;0.70;;;;;;;-4.11;55.51;101267.70;1714281;82;21175;-60
2022/01/19 01:35:19;;;;;;;2.40;0.55;;;;;;;-4.11;55.27;101276.69;1717372;82;21273;-60
2022/01/19 01:37:46;;;;;;;2.80;0.93;;;;;;;-4.11;55.30;101280.99;1696564;82;21129;-60
2022/01/19 01:40:14;;;;;;;2.25;0.55;;;;;;;-4.04;54.96;101284.39;1698303;82;21113;-60
2022/01/19 01:42:42;;;;;;;5.50;0.75;;;;;;;-3.92;54.64;101290.33;1719768;82;21070;-61
2022/01/19 01:45:13;;;;;;;4.42;1.00;;;;;;;-4.09;54.80;101288.25;1716013;81;21140;-61
2022/01/19 01:47:43;;;;;;;4.20;0.85;;;;;;;-4.08;54.55;101283.55;1718039;82;21080;-61
2022/01/19 01:55:23;;;;;;;2.50;0.90;;;;;;;-4.17;54.55;101286.16;1704245;82;21095;-61
2022/01/19 01:57:50;;;;;;;3.90;0.80;;;;;;;-4.19;54.65;101284.87;1695260;81;22251;-61
2022/01/19 02:00:23;;;;;;;3.33;0.70;;;;;;;-4.21;54.78;101285.75;1719569;82;21591;-62
2022/01/19 02:02:54;;;;;;;5.55;0.80;;;;;;;-4.18;54.50;101278.88;1742254;80;28338;-60
2022/01/19 02:05:22;;;;;;;3.25;0.93;;;;;;;-4.24;54.80;101267.77;1734668;80;21097;-60
2022/01/19 02:08:04;;;;;;;2.55;0.90;;;;;;;-4.30;54.99;101266.09;1719821;80;21116;-61
2022/01/19 02:10:35;;;;;;;2.50;0.75;;;;;;;-4.31;55.09;101270.36;1731809;80;21138;-60
2022/01/19 02:23:49;;;;;;;2.58;0.88;;;;;;;-4.28;54.96;101278.94;1734458;80;21109;-59
2022/01/19 02:26:20;;;;;;;2.02;0.68;;;;;;;-4.36;55.07;101268.69;1703893;82;21098;-60
2022/01/19 02:29:13;;;;;;;2.98;1.22;;;;;;;-4.41;55.27;101267.85;1759971;80;21654;-60
2022/01/19 02:41:29;;;;;;;2.75;0.70;;;;;;;-4.49;55.66;101258.88;1770525;79;22589;-60
2022/01/19 02:43:56;;;;;;;4.12;1.22;;;;;;;-4.55;55.78;101271.77;1728843;81;21495;-60
2022/01/19 02:49:16;;;;;;;4.40;1.47;;;;;;;-4.55;55.81;101255.91;1733473;81;20975;-60
2022/01/19 02:51:43;;;;;;;3.87;1.60;;;;;;;-4.58;55.91;101258.92;1709558;81;20998;-60
2022/01/19 02:54:14;;;;;;;5.87;1.70;;;;;;;-4.65;56.12;101258.53;1734793;81;21050;-61
2022/01/19 02:56:44;;;;;;;5.17;1.47;;;;;;;-4.63;56.15;101263.22;1710604;81;20995;-60
2022/01/19 02:59:22;;;;;;;3.75;1.12;;;;;;;-4.64;56.13;101270.49;1705993;82;21841;-60
2022/01/19 03:09:45;;;;;;;6.55;1.80;;;;;;;-4.72;56.51;101275.67;1709473;82;21809;-61
2022/01/19 03:12:11;;;;;;;6.67;1.87;;;;;;;-4.70;56.65;101282.49;1711329;82;21059;-60
2022/01/19 03:14:38;;;;;;;3.95;1.40;;;;;;;-4.61;56.34;101288.47;1732294;81;21120;-59
2022/01/19 03:17:06;;;;;;;4.70;2.00;;;;;;;-4.73;56.68;101275.23;1735621;81;21123;-60
2022/01/19 03:19:34;;;;;;;6.47;1.60;;;;;;;-4.71;56.67;101287.22;1736080;81;21532;-60
2022/01/19 03:22:00;;;;;;;6.87;1.65;;;;;;;-4.67;56.67;101281.64;1708713;82;21098;-59
2022/01/19 03:24:27;;;;;;;5.85;2.00;;;;;;;-4.62;56.54;101283.77;1733207;81;21169;-60
2022/01/19 03:26:53;;;;;;;3.95;1.37;;;;;;;-4.74;56.86;101270.53;1739604;81;21027;-60
2022/01/19 03:29:21;;;;;;;4.58;1.92;;;;;;;-4.79;57.16;101270.98;1738138;81;21105;-60
2022/01/19 03:31:49;;;;;;;4.30;1.12;;;;;;;-4.74;57.17;101261.95;1737085;80;21007;-60
2022/01/19 03:34:16;;;;;;;5.22;1.07;;;;;;;-4.73;57.24;101257.26;1709500;82;21561;-60
2022/01/19 03:36:44;;;;;;;3.83;0.90;;;;;;;-4.79;57.40;101240.16;1710869;82;22330;-60
2022/01/19 03:39:11;;;;;;;3.17;1.15;;;;;;;-4.79;57.54;101241.86;1733982;81;21113;-59
2022/01/19 03:41:37;;;;;;;6.05;1.72;;;;;;;-4.79;57.67;101239.29;1743020;81;21133;-61
2022/01/19 03:44:05;;;;;;;2.55;1.00;;;;;;;-4.80;57.70;101238.44;1748618;81;21117;-61
2022/01/19 03:46:42;;;;;;;3.60;0.95;;;;;;;-4.80;57.85;101247.88;1723429;81;21117;-61
2022/01/19 03:49:11;;;;;;;3.52;1.05;;;;;;;-4.76;57.94;101255.98;1684910;84;21229;-60
2022/01/19 03:51:38;;;;;;;3.35;0.80;;;;;;;-4.82;58.08;101255.98;1677999;83;21089;-60
2022/01/19 03:54:04;;;;;;;2.52;0.70;;;;;;;-4.83;58.04;101264.13;1689392;82;21099;-60
2022/01/19 03:56:32;;;;;;;2.58;0.80;;;;;;;-4.81;57.93;101258.98;1694033;83;21102;-60
2022/01/19 03:58:59;;;;;;;5.17;1.75;;;;;;;-4.85;57.95;101263.28;1688091;83;21070;-60
2022/01/19 04:01:25;;;;;;;3.90;1.10;;;;;;;-4.87;58.10;101261.99;1689957;82;21066;-61
2022/01/19 04:06:29;;;;;;;6.42;1.95;;;;;;;-4.85;58.00;101273.55;1683784;82;21145;-60
2022/01/19 04:08:54;;;;;;;4.15;1.50;;;;;;;-4.87;58.10;101270.98;1684064;84;21162;-62
2022/01/19 04:11:22;;;;;;;2.62;0.93;;;;;;;-4.84;58.12;101270.13;1709565;82;21101;-60
2022/01/19 04:16:32;;;;;;;4.67;1.65;;;;;;;-4.85;58.13;101268.41;1705174;82;21106;-57
2022/01/19 04:19:18;;;;;;;4.50;1.42;;;;;;;-4.86;58.12;101265.00;1682100;83;21367;-58
2022/01/19 04:21:29;;;;;;;4.17;1.37;;;;;;;-4.82;58.12;101286.38;1703104;82;21139;-55
2022/01/19 04:23:55;;;;;;;3.37;1.05;;;;;;;-4.79;58.09;101288.95;1685146;83;21509;-56
2022/01/19 04:26:22;;;;;;;6.10;1.55;;;;;;;-4.74;58.03;101295.34;1686470;83;21269;-56
2022/01/19 04:28:48;;;;;;;7.00;2.27;;;;;;;-4.68;57.94;101295.33;1682556;83;21658;-55
2022/01/19 04:31:15;;;;;;;6.35;2.75;;;;;;;-4.61;57.83;101289.75;1662506;84;21094;-56
2022/01/19 04:33:44;;;;;;;8.48;2.95;;;;;;;-4.54;57.74;101285.89;1688831;83;21038;-55
2022/01/19 04:47:12;;;;;;;7.30;3.37;;;;;;;-4.42;57.67;101287.56;1703224;80;22380;-55
2022/01/19 05:03:09;;;;;;;5.28;1.55;;;;;;;-4.44;58.04;101306.39;1723937;81;21078;-55
2022/01/19 05:05:33;;;;;;;5.75;2.17;;;;;;;-4.46;58.16;101304.27;1697632;82;21542;-53
2022/01/19 05:08:10;;;;;;;5.25;1.80;;;;;;;-4.52;58.35;101308.56;1726921;82;21128;-53
2022/01/19 05:15:51;;;;;;;6.70;2.35;;;;;;;-4.49;58.44;101302.55;1727154;82;21757;-56
2022/01/19 05:18:20;;;;;;;6.45;2.20;;;;;;;-4.49;58.42;101304.70;1724793;81;21152;-56
2022/01/19 05:20:47;;;;;;;4.55;1.77;;;;;;;-4.49;58.23;101301.27;1708151;80;21039;-55
2022/01/19 05:23:18;;;;;;;5.72;2.67;;;;;;;-4.53;58.28;101311.98;1699723;82;21059;-53
2022/01/19 05:25:45;;;;;;;7.47;2.52;;;;;;;-4.52;58.16;101313.70;1723767;82;21027;-55
2022/01/19 05:28:14;;;;;;;5.33;2.10;;;;;;;-4.62;58.37;101306.88;1728009;82;21340;-55
2022/01/19 05:30:42;;;;;;;8.05;2.40;;;;;;;-4.60;58.29;101307.73;1727516;82;22411;-53
2022/01/19 05:33:08;;;;;;;7.17;1.95;;;;;;;-4.67;58.46;101311.18;1703649;82;21085;-54
2022/01/19 05:35:35;;;;;;;5.45;1.85;;;;;;;-4.63;58.39;101303.03;1725804;82;21529;-53
2022/01/19 05:40:50;;;;;;;5.78;2.55;;;;;;;-4.71;58.66;101310.74;1779865;78;22042;-54
2022/01/19 05:43:17;;;;;;;5.33;2.15;;;;;;;-4.74;58.70;101314.59;1746134;80;21650;-56
2022/01/19 05:45:44;;;;;;;6.85;2.15;;;;;;;-4.74;58.70;101318.04;1730647;80;21186;-53
2022/01/19 05:48:12;;;;;;;8.40;2.62;;;;;;;-4.77;58.76;101321.89;1719071;81;21204;-54
2022/01/19 05:50:40;;;;;;;10.68;2.22;;;;;;;-4.79;58.82;101324.90;1739356;81;21122;-54
2022/01/19 05:53:09;;;;;;;5.03;1.90;;;;;;;-4.77;58.79;101323.17;1721695;80;21055;-53
2022/01/19 05:55:35;;;;;;;6.58;1.90;;;;;;;-4.76;58.70;101319.73;1740259;80;21053;-54
2022/01/19 05:58:01;;;;;;;10.43;2.55;;;;;;;-4.79;58.78;101327.47;1718968;80;21176;-54
2022/01/19 06:00:28;;;;;;;5.53;2.10;;;;;;;-4.82;58.88;101328.75;1747807;80;20967;-54
2022/01/19 06:02:54;;;;;;;4.55;1.90;;;;;;;-4.82;58.94;101317.60;1744373;80;21117;-55
2022/01/19 06:05:26;;;;;;;7.55;2.25;;;;;;;-4.84;58.94;101318.91;1735701;80;21549;-54
2022/01/19 06:08:16;;;;;;;5.62;2.00;;;;;;;-4.79;58.98;101333.88;1736674;80;21153;-54
2022/01/19 06:10:44;;;;;;;5.72;2.25;;;;;;;-4.80;58.97;101329.59;1661780;85;21368;-54
2022/01/19 06:13:16;;;;;;;6.25;2.40;;;;;;;-4.77;59.03;101323.17;1689493;83;21146;-54
2022/01/19 06:15:43;;;;;;;4.72;2.20;;;;;;;-4.67;58.92;101336.86;1682620;83;21594;-53
2022/01/19 06:18:10;;;;;;;6.28;2.50;;;;;;;-4.59;58.74;101343.25;1693801;83;21079;-53
2022/01/19 06:20:38;;;;;;;7.60;2.72;;;;;;;-4.54;58.62;101342.40;1670590;83;21090;-54
2022/01/19 06:23:05;;;;;;;5.40;2.05;;;;;;;-4.50;58.49;101339.39;1694342;83;21127;-54
2022/01/19 06:25:33;;;;;;;8.05;2.72;;;;;;;-4.47;58.41;101334.25;1688210;83;21117;-53
2022/01/19 06:27:59;;;;;;;7.45;3.05;;;;;;;-4.49;58.51;101328.23;1692521;83;21130;-54
2022/01/19 06:30:25;;;;;;;8.25;3.67;;;;;;;-4.47;58.56;101332.97;1699171;83;21058;-54
2022/01/19 06:32:53;;;;;;;6.95;2.83;;;;;;;-4.44;58.51;101325.66;1661927;83;21086;-53
2022/01/19 06:35:21;;;;;;;5.92;2.62;;;;;;;-4.35;58.40;101332.08;1686833;83;21727;-54
2022/01/19 06:38:06;;;;;;;6.35;2.55;;;;;;;-4.25;58.28;101340.58;1690439;83;22506;-53
2022/01/19 06:40:34;;;;;;;5.90;2.42;;;;;;;-4.13;58.07;101349.11;1686992;82;21411;-54
2022/01/19 06:43:01;;;;;;;4.12;2.27;;;;;;;-4.06;57.87;101343.52;1654352;85;21070;-53
2022/01/19 06:45:27;;;;;;;5.42;2.40;;;;;;;-4.01;57.72;101346.08;1742665;80;21145;-53
2022/01/19 06:47:54;;;;;;;8.08;2.60;;;;;;;-3.97;57.61;101351.20;1733350;80;21773;-54
2022/01/19 06:50:21;;;;;;;7.25;2.45;;;;;;;-3.90;57.65;101352.44;1722021;80;21074;-52
2022/01/19 06:52:48;;;;;;;7.20;2.55;;;;;;;-3.82;57.51;101344.27;1731494;80;21437;-53
2022/01/19 06:55:15;;;;;;;7.75;3.25;;;;;;;-3.71;57.38;101339.92;1734110;80;21060;-51
2022/01/19 06:57:44;;;;;;;6.55;2.55;;;;;;;-3.66;57.14;101338.17;1712942;80;21023;-52
2022/01/19 07:00:14;;;;;;;6.60;2.58;;;;;;;-3.60;57.11;101333.42;1733296;80;21142;-52
2022/01/19 07:02:58;;;;;;;5.75;2.42;;;;;;;-3.54;57.09;101337.25;1733153;80;21094;-51
2022/01/19 07:05:33;;;;;;;7.80;3.02;;;;;;;-3.45;56.58;101341.47;1711992;80;21047;-51
2022/01/19 07:08:05;;;;;;;8.28;2.70;;;;;;;-3.49;56.32;101332.08;1732269;80;21081;-53
2022/01/19 07:10:33;;;;;;;7.42;3.17;;;;;;;-3.55;56.70;101336.41;1723882;80;20927;-51
2022/01/19 07:13:00;;;;;;;7.65;2.80;;;;;;;-3.52;56.68;101343.23;1731431;80;21100;-51
2022/01/19 07:15:28;;;;;;;8.95;2.55;;;;;;;-3.47;56.70;101338.91;1740299;80;21034;-53
2022/01/19 07:17:55;;;;;;;5.72;2.62;;;;;;;-3.46;56.52;101342.32;1717164;80;21078;-52
2022/01/19 07:20:21;;;;;;;6.55;2.72;;;;;;;-3.49;56.69;101333.36;1741236;80;21099;-53
2022/01/19 07:22:48;;;;;;;6.83;2.87;;;;;;;-3.51;56.84;101331.20;1713936;81;21561;-52
2022/01/19 07:25:15;;;;;;;10.88;3.22;;;;;;;-3.51;56.95;101325.66;1733388;80;21104;-56
2022/01/19 07:27:41;;;;;;;8.10;3.00;;;;;;;-3.50;57.06;101331.20;1739560;80;21616;-56
2022/01/19 07:30:10;;;;;;;8.50;3.72;;;;;;;-3.48;57.24;101328.21;1734592;82;21066;-57
2022/01/19 07:32:37;;;;;;;9.40;2.75;;;;;;;-3.41;57.15;101332.88;1722008;82;21708;-57
2022/01/19 07:35:07;;;;;;;7.33;2.98;;;;;;;-3.36;57.00;101327.27;1718152;80;21102;-56
2022/01/19 07:37:33;;;;;;;7.45;3.52;;;;;;;-3.34;56.91;101324.25;1733486;80;21183;-57
2022/01/19 07:40:01;;;;;;;10.68;4.10;;;;;;;-3.32;57.12;101330.23;1721585;80;21309;-58
2022/01/19 07:42:27;;;;;;;10.08;3.42;;;;;;;-3.23;56.85;101321.16;1736238;80;22483;-57
2022/01/19 07:45:05;;;;;;;9.93;3.65;;;;;;;-3.18;56.84;101319.41;1722340;80;21145;-58
2022/01/19 07:47:50;;;;;;;7.58;2.87;;;;;;;-3.14;56.71;101320.64;1738784;80;21099;-54
2022/01/19 07:50:35;;;;;;;7.37;3.70;;;;;;;-3.10;56.97;101315.91;1733771;80;21134;-52
2022/01/19 07:53:20;;;;;;;9.40;3.98;;;;;;;-3.05;56.78;101318.00;1733010;80;21047;-52
2022/01/19 07:55:51;;;;;;;8.58;4.50;;;;;;;-3.01;56.76;101315.80;1733816;80;21714;-52
2022/01/19 07:58:25;;;;;;;11.05;3.45;;;;;;;-2.95;56.78;101297.73;1684021;80;21093;-52
2022/01/19 08:01:11;;;;;;;8.05;3.47;;;;;;;-2.84;56.47;101300.19;1734796;80;21175;-51
2022/01/19 08:03:40;;;;;;;10.23;3.80;;;;;;;-2.80;56.46;101287.28;1736132;80;22766;-51
2022/01/19 08:06:08;;;;;;;7.65;3.35;;;;;;;-2.76;56.25;101285.52;1737571;80;21635;-59
2022/01/19 08:08:36;;;;;;;7.30;3.25;;;;;;;-2.73;56.26;101293.66;1736668;80;21569;-59
2022/01/19 08:11:03;;;;;;;8.13;3.67;;;;;;;-2.69;56.18;101281.16;1737760;80;21121;-59
2022/01/19 08:13:32;;;;;;;9.85;3.60;;;;;;;-2.69;56.34;101285.02;1737675;80;21090;-59
2022/01/19 08:15:58;;;;;;;7.70;3.37;;;;;;;-2.65;56.23;101279.83;1733788;80;21860;-59
2022/01/19 08:18:25;;;;;;;9.30;3.65;;;;;;;-2.58;56.16;101288.79;1732038;80;21090;-58
2022/01/19 08:20:52;;;;;;;12.25;2.58;;;;;;;-2.55;56.96;101284.45;1719899;81;21094;-60
2022/01/19 08:23:20;;;;;;;5.10;2.83;;;;;;;-2.50;56.09;101292.98;1730673;80;21546;-60
2022/01/19 08:25:48;;;;;;;7.35;3.52;;;;;;;-2.50;56.16;101286.53;1653858;83;21197;-51
2022/01/19 08:28:15;;;;;;;8.58;3.42;;;;;;;-2.48;55.87;101283.94;1720879;80;22187;-52
2022/01/19 08:30:41;;;;;;;8.63;3.20;;;;;;;-2.48;56.72;101277.50;1736717;80;21106;-52
2022/01/19 08:33:09;;;;;;;12.60;4.20;;;;;;;-2.44;55.95;101274.00;1735177;80;21062;-59
2022/01/19 08:35:45;;;;;;;7.95;2.60;;;;;;;-2.45;55.29;101275.73;1720556;80;21074;-59
2022/01/19 08:38:30;;;;;;;7.05;2.37;;;;;;;-2.48;55.44;101277.05;1730482;80;21111;-60
2022/01/19 08:41:11;;;;;;;8.00;3.27;;;;;;;-2.52;55.44;101274.52;1735183;80;21157;-60
2022/01/19 08:43:38;;;;;;;8.28;2.98;;;;;;;-2.49;55.26;101277.94;1734149;80;21524;-60
2022/01/19 08:46:05;;;;;;;9.78;3.20;;;;;;;-2.49;55.55;101280.52;1745278;80;21035;-59
2022/01/19 08:48:50;;;;;;;5.50;2.58;;;;;;;-2.41;55.18;101276.99;1737967;80;21498;-51
2022/01/19 08:51:36;;;;;;;;;;;;;;;-2.45;55.18;101277.02;1669934;84;21072;-53
2022/01/19 08:54:06;;;;;;;5.65;2.22;;;;;;;-2.47;55.18;101281.34;1694266;82;20536;-51
2022/01/19 08:56:36;;;;;;;6.95;2.72;;;;;;;-2.53;55.31;101277.55;1711877;80;21089;-50
2022/01/19 08:59:02;;;;;;;6.28;2.80;;;;;;;-2.54;55.59;101271.12;1725784;80;21082;-52
2022/01/19 09:01:29;;;;;;;7.85;3.10;;;;;;;-2.42;55.41;101270.99;1740221;80;21070;-61
2022/01/19 09:03:55;;;;;;;7.90;3.15;;;;;;;-2.34;55.01;101267.86;1717885;80;21639;-61
2022/01/19 09:06:21;;;;;;;8.00;3.27;;;;;;;-2.26;55.03;101258.30;1710207;80;21187;-59
2022/01/19 09:08:48;;;;;;;5.83;2.45;;;;;;;-2.13;54.65;101262.03;1735329;80;21089;-52
2022/01/19 09:11:15;;;;;;;5.85;2.55;;;;;;;-1.96;54.08;101269.53;1738395;80;21513;-51
2022/01/19 09:13:42;;;;;;;5.15;2.25;;;;;;;-1.88;54.00;101268.55;1725634;81;21136;-53
2022/01/19 09:16:08;;;;;;;7.62;2.90;;;;;;;-1.84;53.91;101270.64;1735596;81;21600;-63
2022/01/19 09:18:36;;;;;;;6.65;2.83;;;;;;;-1.73;53.83;101264.90;1734564;80;21098;-63
2022/01/19 09:21:02;;;;;;;9.55;2.85;;;;;;;-1.61;53.11;101272.89;1720481;81;21707;-64
2022/01/19 09:23:30;;;;;;;6.47;2.72;;;;;;;-1.54;52.65;101261.59;1725630;81;21122;-68
2022/01/19 09:25:57;;;;;;;6.78;2.60;;;;;;;-1.50;52.57;101262.39;1737966;80;21061;-51
2022/01/19 09:28:23;;;;;;;7.28;2.37;;;;;;;-1.41;52.20;101256.22;1739849;80;21668;-50
2022/01/19 09:30:50;;;;;;;6.78;2.80;;;;;;;-1.37;52.34;101250.98;1736547;80;21117;-51
2022/01/19 09:33:20;;;;;;;7.53;2.45;;;;;;;-1.34;52.16;101240.61;1740443;80;22108;-53
2022/01/19 09:36:07;;;;;;;8.20;3.05;;;;;;;-1.20;52.03;101238.23;1708394;81;21085;-70
2022/01/19 09:38:25;;;;;;;6.95;2.72;;;;;;;-1.09;51.63;101228.98;1726817;80;21067;-71
2022/01/19 09:40:52;;;;;;;6.22;2.87;;;;;;;-0.97;51.60;101232.21;1734440;80;21380;-69
2022/01/19 09:43:22;;;;;;;7.83;2.87;;;;;;;-0.87;51.25;101223.01;1724791;80;21139;-74
2022/01/19 09:45:46;;;;;;;6.45;2.72;;;;;;;-0.76;51.14;101221.05;1694589;82;21114;-52
2022/01/19 09:48:13;;;;;;;6.08;2.52;;;;;;;-0.68;50.45;101217.88;1724594;80;21063;-47
2022/01/19 09:50:39;;;;;;;7.72;2.10;;;;;;;-0.54;49.99;101215.45;1723341;80;21401;-49
2022/01/19 09:53:07;;;;;;;5.58;2.52;;;;;;;-0.40;49.25;101219.91;1717173;80;21134;-48
2022/01/19 09:55:35;;;;;;;8.90;2.80;;;;;;;-0.39;48.67;101220.30;1720690;81;21211;-47
2022/01/19 09:58:03;;;;;;;8.28;2.95;;;;;;;-0.35;48.86;101220.66;1723502;80;21396;-55
2022/01/19 10:00:29;;;;;;;5.97;2.15;;;;;;;-0.34;48.98;101209.41;1727982;80;21118;-51
2022/01/19 10:03:25;;;;;;;6.00;2.72;;;;;;;-0.26;48.24;101206.67;1724516;80;21805;-53
2022/01/19 10:06:07;;;;;;;6.62;2.65;;;;;;;-0.21;48.46;101209.55;1737355;80;21506;-52
2022/01/19 10:08:50;;;;;;;9.65;2.70;;;;;;;0.01;47.90;101192.26;1722380;80;21799;-52
2022/01/19 10:17:01;;;;;;;6.60;2.80;;;;;;;0.22;47.98;101170.62;1734634;80;21036;-53
2022/01/19 10:19:38;;;;;;;6.12;2.85;;;;;;;0.22;47.98;101170.62;1708532;81;21079;-58
2022/01/19 10:22:25;;;;;;;5.97;2.58;;;;;;;0.29;47.50;101164.44;1723721;80;22874;-54
2022/01/19 10:25:03;;;;;;;6.80;2.67;;;;;;;0.29;47.50;101164.44;1721050;81;21543;-54
2022/01/19 10:27:42;;;;;;;6.97;2.52;;;;;;;0.30;47.54;101163.53;1728294;80;21113;-54
2022/01/19 10:30:13;;;;;;;7.47;2.67;;;;;;;0.32;47.11;101163.91;1731259;80;21066;-53
2022/01/19 10:32:52;;;;;;;7.10;2.72;;;;;;;0.39;46.83;101168.91;1719609;80;21063;-54
2022/01/19 10:35:36;;;;;;;8.15;2.90;;;;;;;0.41;47.02;101162.83;1723933;80;21103;-53
2022/01/19 10:38:25;;;;;;;6.67;2.58;;;;;;;0.47;46.61;101173.45;1717874;81;21051;-53
2022/01/19 10:41:04;;;;;;;9.75;2.98;;;;;;;0.47;46.66;101175.63;1727122;80;21130;-54
2022/01/19 10:43:41;;;;;;;9.53;3.00;;;;;;;0.51;47.47;101172.05;1738933;80;21031;-53
2022/01/19 10:46:27;;;;;;;5.65;2.33;;;;;;;0.64;47.18;101171.73;1728600;80;21599;-54
2022/01/19 10:49:04;;;;;;;8.08;3.00;;;;;;;0.73;46.86;101162.44;1724586;80;24150;-54
2022/01/19 10:51:39;;;;;;;7.65;3.35;;;;;;;0.76;46.61;101155.87;1744695;79;21464;-53
2022/01/19 10:54:16;;;;;;;10.68;3.42;;;;;;;0.73;46.88;101154.66;1721974;81;21031;-56
2022/01/19 10:56:45;;;;;;;8.48;2.92;;;;;;;0.76;46.87;101151.13;1738700;80;21161;-53
2022/01/19 10:59:13;;;;;;;8.05;3.12;;;;;;;0.80;47.06;101166.55;1727343;81;21086;-52
2022/01/19 11:01:48;;;;;;;5.28;2.20;;;;;;;0.80;47.34;101167.84;1740027;80;21074;-52
2022/01/19 11:04:37;;;;;;;5.47;2.33;;;;;;;0.78;47.55;101157.98;1736655;80;21153;-53
2022/01/19 11:07:15;;;;;;;5.80;2.20;;;;;;;0.81;47.74;101157.90;1740214;80;21694;-54
2022/01/19 11:09:56;;;;;;;6.45;2.22;;;;;;;0.80;48.20;101164.41;1737703;80;21142;-52
2022/01/19 11:12:17;;;;;;;6.97;2.95;;;;;;;0.73;47.89;101169.75;1746741;80;21085;-52
2022/01/19 11:14:45;;;;;;;5.58;1.95;;;;;;;0.73;47.89;101169.75;1743428;80;21130;-52
2022/01/19 11:17:11;;;;;;;13.55;2.70;;;;;;;0.69;48.54;101166.85;1738392;80;21109;-52
2022/01/19 11:19:39;;;;;;;7.15;2.90;;;;;;;0.71;48.90;101163.77;1725540;80;21404;-52
2022/01/19 11:22:29;;;;;;;5.47;2.02;;;;;;;0.69;49.37;101154.33;1738381;80;21737;-52
2022/01/19 11:25:13;;;;;;;9.30;2.85;;;;;;;0.70;49.55;101145.67;1735921;80;21364;-53
2022/01/19 11:27:46;;;;;;;8.03;2.67;;;;;;;0.66;49.80;101135.84;1723841;81;21255;-53
2022/01/19 11:30:25;;;;;;;10.45;3.25;;;;;;;0.65;49.97;101128.11;1736942;80;21120;-54
2022/01/19 11:33:26;;;;;;;14.63;3.62;;;;;;;0.62;50.51;101125.14;1739615;80;21165;-54
2022/01/19 11:36:05;;;;;;;8.13;3.02;;;;;;;0.63;50.62;101119.09;1745214;80;21537;-67
2022/01/19 11:38:39;;;;;;;7.40;2.70;;;;;;;0.71;50.26;101117.14;1736282;80;21678;-65
2022/01/19 11:41:14;;;;;;;6.25;2.67;;;;;;;0.82;50.08;101106.47;1737124;80;23309;-65
2022/01/19 11:43:54;;;;;;;6.97;3.33;;;;;;;0.82;50.08;101106.47;1730285;80;21046;-66
2022/01/19 11:46:45;;;;;;;6.60;2.25;;;;;;;0.88;50.64;101102.42;1726620;80;21632;-61
2022/01/19 11:49:17;;;;;;;7.03;3.00;;;;;;;0.88;50.64;101102.42;1714726;80;21091;-67
2022/01/19 11:51:46;;;;;;;7.65;3.05;;;;;;;0.87;50.44;101099.41;1721866;80;21145;-70
2022/01/19 11:54:21;;;;;;;5.37;2.30;;;;;;;0.89;50.53;101098.95;1722969;80;21435;-66
2022/01/19 11:57:06;;;;;;;8.08;2.50;;;;;;;1.01;50.82;101095.58;1721211;80;22488;-67
2022/01/19 11:59:48;;;;;;;11.30;3.12;;;;;;;1.06;50.85;101084.20;1723759;80;21070;-65
2022/01/19 12:02:32;;;;;;;10.15;2.98;;;;;;;1.22;50.92;101089.77;1714939;80;21090;-59
2022/01/19 12:05:02;;;;;;;5.67;2.22;;;;;;;1.37;50.96;101093.65;1722731;80;21102;-57
2022/01/19 12:07:41;;;;;;;7.65;3.15;;;;;;;1.45;50.85;101090.84;1717062;80;21827;-57
2022/01/19 12:10:15;;;;;;;7.75;2.67;;;;;;;1.52;50.80;101088.45;1725847;80;21070;-56
2022/01/19 12:12:56;;;;;;;6.15;2.45;;;;;;;1.59;51.10;101082.62;1724092;80;21105;-59
2022/01/19 12:15:56;;;;;;;5.40;2.67;;;;;;;1.72;51.42;101078.74;1716783;80;21110;-61
2022/01/19 12:18:43;;;;;;;6.70;2.87;;;;;;;1.79;51.04;101072.91;1686006;82;21063;-59
2022/01/19 12:21:16;;;;;;;6.37;2.75;;;;;;;1.83;51.25;101065.41;1714980;80;21149;-58
2022/01/19 12:23:43;;;;;;;4.65;2.20;;;;;;;1.89;51.44;101066.97;1716788;80;21093;-57
2022/01/19 12:26:10;;;;;;;7.53;2.55;;;;;;;1.93;51.64;101059.01;1726003;80;21113;-56
2022/01/19 12:28:52;;;;;;;9.63;2.47;;;;;;;2.05;51.29;101070.73;1725778;80;21055;-58
2022/01/19 12:31:31;;;;;;;7.10;2.67;;;;;;;2.13;50.82;101074.37;1732158;80;21070;-58
2022/01/19 12:34:16;;;;;;;7.15;2.98;;;;;;;2.23;50.71;101074.46;1733424;80;22489;-57
2022/01/19 12:36:55;;;;;;;5.83;2.75;;;;;;;2.22;50.89;101072.33;1731849;80;21581;-57
2022/01/19 12:39:32;;;;;;;6.85;2.90;;;;;;;2.27;50.97;101078.66;1733408;80;21103;-57
2022/01/19 12:42:14;;;;;;;6.47;3.15;;;;;;;2.39;50.97;101070.90;1719922;80;21592;-57
2022/01/19 12:44:53;;;;;;;7.47;3.00;;;;;;;2.44;50.84;101074.61;1731119;80;21537;-57
2022/01/19 12:47:31;;;;;;;8.40;3.83;;;;;;;2.43;51.00;101070.34;1732794;80;23029;-58
2022/01/19 12:50:12;;;;;;;6.67;2.50;;;;;;;2.44;50.95;101071.59;1734264;80;21544;-59
2022/01/19 12:52:48;;;;;;;6.00;2.62;;;;;;;2.38;50.94;101077.82;1731581;80;21214;-60
2022/01/19 12:55:19;;;;;;;7.03;2.95;;;;;;;2.25;51.14;101081.74;1732320;80;21099;-63
2022/01/19 12:57:47;;;;;;;10.10;2.85;;;;;;;2.10;51.45;101077.94;1735730;80;21078;-63
2022/01/19 13:00:20;;;;;;;8.00;3.15;;;;;;;1.93;51.97;101071.98;1734513;80;21118;-60
2022/01/19 13:02:47;;;;;;;6.65;2.72;;;;;;;1.86;52.48;101074.39;1734138;80;21062;-65
2022/01/19 13:05:18;;;;;;;7.17;3.17;;;;;;;1.75;53.28;101070.86;1733983;80;21097;-60
2022/01/19 13:07:56;;;;;;;9.53;2.87;;;;;;;1.66;53.62;101072.02;1733235;80;21082;-63
2022/01/19 13:13:04;;;;;;;5.37;2.42;;;;;;;1.37;54.74;101082.44;1731262;80;21126;-62